Time;durP1;ratioP1;P1;durP2;ratioP2;P2;SDS_P1;SDS_P2;PMS_P1;PMS_P2;Temp;Humidity;BMP_temperature;BMP_pressure;BME280_temperature;BME280_humidity;BME280_pressure;Samples;Min_cycle;Max_cycle;Signal;HPM_P1;HPM_P2
2021/09/14 00:00:12;;;;;;;7.67;5.30;;;16.30;99.90;;;;;;5013222;28;20199;-52
2021/09/14 00:02:39;;;;;;;7.13;5.03;;;16.30;99.90;;;;;;5004971;28;20573;-52
2021/09/14 00:05:07;;;;;;;7.43;5.00;;;16.30;99.90;;;;;;5010538;28;20258;-52
2021/09/14 00:07:34;;;;;;;11.93;5.63;;;16.30;99.90;;;;;;5007008;28;20609;-52
2021/09/14 00:10:01;;;;;;;9.33;5.60;;;16.30;99.90;;;;;;5008868;28;20284;-52
2021/09/14 00:12:27;;;;;;;9.50;5.43;;;16.30;99.90;;;;;;5011365;28;20235;-52
2021/09/14 00:14:54;;;;;;;8.97;5.07;;;16.30;99.90;;;;;;5004107;28;20661;-52
2021/09/14 00:17:21;;;;;;;6.63;5.50;;;16.30;99.90;;;;;;5026174;28;20576;-52
2021/09/14 00:19:48;;;;;;;8.97;5.53;;;16.30;99.90;;;;;;5006337;28;20192;-52
2021/09/14 00:22:15;;;;;;;7.77;5.33;;;16.30;99.90;;;;;;5010865;28;20226;-52
2021/09/14 00:24:42;;;;;;;6.63;5.53;;;16.30;99.90;;;;;;5005470;28;20230;-52
2021/09/14 00:27:08;;;;;;;7.90;5.67;;;16.20;99.90;;;;;;5006197;28;20307;-52
2021/09/14 00:29:35;;;;;;;10.23;6.37;;;16.20;99.90;;;;;;5007997;28;20235;-52
2021/09/14 00:32:02;;;;;;;8.63;5.63;;;16.10;99.90;;;;;;5007229;28;20983;-52
2021/09/14 00:34:29;;;;;;;7.67;5.73;;;16.10;99.90;;;;;;5004983;28;20222;-52
2021/09/14 00:36:56;;;;;;;8.17;5.50;;;16.10;99.90;;;;;;5002915;28;20302;-52
2021/09/14 00:39:22;;;;;;;9.10;6.40;;;16.10;99.90;;;;;;5008504;28;20239;-52
2021/09/14 00:41:49;;;;;;;9.63;5.63;;;16.10;99.90;;;;;;5006236;28;20281;-52
2021/09/14 00:44:16;;;;;;;10.53;6.73;;;16.10;99.90;;;;;;5010370;28;20198;-52
2021/09/14 00:46:43;;;;;;;8.60;6.30;;;16.00;99.90;;;;;;5012061;28;20223;-52
2021/09/14 00:49:10;;;;;;;7.90;6.20;;;16.00;99.90;;;;;;5007611;28;20211;-52
2021/09/14 00:51:37;;;;;;;9.60;6.03;;;16.00;99.90;;;;;;5007961;28;20297;-52
2021/09/14 00:54:05;;;;;;;8.60;5.83;;;16.00;99.90;;;;;;5001128;28;20978;-52
2021/09/14 00:56:32;;;;;;;8.30;5.67;;;16.00;99.90;;;;;;5008204;28;20235;-52
2021/09/14 00:59:00;;;;;;;7.73;5.60;;;16.00;99.90;;;;;;5006675;28;20334;-52
2021/09/14 01:01:27;;;;;;;10.13;6.30;;;16.00;99.90;;;;;;5005265;28;20231;-52
2021/09/14 01:03:54;;;;;;;9.93;6.33;;;16.00;99.90;;;;;;5002269;28;20219;-52
2021/09/14 01:06:21;;;;;;;11.30;6.40;;;16.00;99.90;;;;;;5006961;28;20641;-52
2021/09/14 01:08:48;;;;;;;9.70;6.10;;;16.00;99.90;;;;;;5003186;28;21958;-52
2021/09/14 01:11:15;;;;;;;9.13;5.90;;;16.00;99.90;;;;;;5010966;28;20213;-52
2021/09/14 01:13:42;;;;;;;9.30;6.23;;;16.00;99.90;;;;;;5006940;28;20231;-52
2021/09/14 01:16:13;;;;;;;10.83;6.67;;;16.00;99.90;;;;;;5005424;28;20322;-52
2021/09/14 01:18:40;;;;;;;8.73;6.70;;;15.90;99.90;;;;;;5011953;28;20238;-52
2021/09/14 01:21:07;;;;;;;8.97;5.83;;;15.80;99.90;;;;;;4996779;28;20211;-52
2021/09/14 01:23:34;;;;;;;10.97;6.83;;;15.90;99.90;;;;;;4996070;28;20303;-52
2021/09/14 01:26:01;;;;;;;12.90;6.70;;;15.80;99.90;;;;;;5002370;28;20211;-52
2021/09/14 01:28:28;;;;;;;11.13;6.43;;;15.80;99.90;;;;;;5006059;28;20292;-52
2021/09/14 01:30:55;;;;;;;10.90;7.10;;;15.80;99.90;;;;;;5007451;28;20253;-52
2021/09/14 01:33:22;;;;;;;7.60;6.67;;;15.80;99.90;;;;;;5006973;28;20203;-52
2021/09/14 01:35:49;;;;;;;10.90;6.60;;;15.80;99.90;;;;;;5006264;28;20234;-52
2021/09/14 01:38:16;;;;;;;10.57;7.53;;;15.80;99.90;;;;;;4999374;28;20307;-52
2021/09/14 01:40:47;;;;;;;10.03;7.07;;;15.80;99.90;;;;;;5003278;28;20237;-52
2021/09/14 01:43:14;;;;;;;8.27;6.80;;;15.80;99.90;;;;;;5013213;28;20596;-52
2021/09/14 01:45:41;;;;;;;10.67;7.63;;;15.80;99.90;;;;;;5013578;28;20294;-52
2021/09/14 01:48:08;;;;;;;9.07;7.43;;;15.80;99.90;;;;;;5006415;28;20218;-52
2021/09/14 01:50:35;;;;;;;11.50;7.53;;;15.80;99.90;;;;;;5003728;28;20199;-52
2021/09/14 01:53:02;;;;;;;10.17;7.37;;;15.80;99.90;;;;;;5005508;28;20326;-51
2021/09/14 01:55:30;;;;;;;11.87;7.47;;;15.70;99.90;;;;;;5003620;28;20238;-52
2021/09/14 01:57:57;;;;;;;15.07;7.27;;;15.60;99.90;;;;;;5002273;28;20899;-52
2021/09/14 02:00:30;;;;;;;11.20;7.60;;;15.60;99.90;;;;;;5003454;28;20204;-52
2021/09/14 03:00:34;;;;;;;10.17;7.70;;;15.70;99.90;;;;;;5005322;28;20195;-52
2021/09/14 03:03:01;;;;;;;13.87;8.93;;;15.70;99.90;;;;;;5004007;28;20223;-52
2021/09/14 03:05:30;;;;;;;9.83;8.40;;;15.70;99.90;;;;;;5007871;28;20659;-52
2021/09/14 03:07:57;;;;;;;11.87;9.00;;;15.70;99.90;;;;;;5001948;28;20659;-52
2021/09/14 03:10:24;;;;;;;12.67;8.10;;;15.60;99.90;;;;;;5000580;28;20338;-52
2021/09/14 03:12:50;;;;;;;11.37;8.77;;;15.70;99.90;;;;;;5005948;28;20441;-52
2021/09/14 03:15:17;;;;;;;15.00;9.50;;;15.70;99.90;;;;;;5005979;28;20661;-52
2021/09/14 03:17:44;;;;;;;12.67;9.60;;;15.70;99.90;;;;;;5010228;28;20230;-52
2021/09/14 03:20:11;;;;;;;12.33;8.90;;;15.70;99.90;;;;;;5003105;28;20297;-52
2021/09/14 03:22:38;;;;;;;12.33;9.03;;;15.60;99.90;;;;;;5003294;28;20295;-52
2021/09/14 03:25:05;;;;;;;12.33;8.93;;;15.70;99.90;;;;;;5000006;28;20212;-50
2021/09/14 03:27:34;;;;;;;13.50;9.40;;;15.60;99.90;;;;;;5003322;28;20305;-50
2021/09/14 03:30:01;;;;;;;13.23;9.43;;;15.50;99.90;;;;;;5010122;28;20255;-50
2021/09/14 03:32:28;;;;;;;12.53;9.60;;;15.60;99.90;;;;;;5001447;28;20714;-53
2021/09/14 03:34:54;;;;;;;13.93;9.97;;;15.50;99.90;;;;;;5005591;28;20200;-52
2021/09/14 03:37:21;;;;;;;12.53;9.67;;;15.50;99.90;;;;;;5011532;28;20738;-52
2021/09/14 03:39:48;;;;;;;14.47;9.90;;;15.60;99.90;;;;;;5004024;28;20334;-53
2021/09/14 03:42:15;;;;;;;13.37;9.80;;;15.60;99.90;;;;;;5005136;28;20297;-53
2021/09/14 03:44:42;;;;;;;17.23;10.60;;;15.60;99.90;;;;;;5006329;28;20298;-53
2021/09/14 03:47:09;;;;;;;13.40;10.10;;;15.50;99.90;;;;;;5004771;28;20495;-52
2021/09/14 03:49:36;;;;;;;14.23;9.93;;;15.50;99.90;;;;;;5006232;28;20229;-53
2021/09/14 03:52:03;;;;;;;12.33;9.80;;;15.50;99.90;;;;;;5006115;28;20318;-53
2021/09/14 03:54:29;;;;;;;11.93;9.23;;;15.50;99.90;;;;;;5003613;28;20290;-52
2021/09/14 03:56:56;;;;;;;11.27;9.17;;;15.60;99.90;;;;;;5008742;28;20267;-52
2021/09/14 03:59:23;;;;;;;13.97;9.30;;;15.60;99.90;;;;;;5007924;28;20302;-52
2021/09/14 04:01:53;;;;;;;9.93;8.33;;;15.50;99.90;;;;;;5010003;28;20310;-53
2021/09/14 04:04:26;;;;;;;13.53;9.40;;;15.50;99.90;;;;;;5007356;28;20713;-53
2021/09/14 04:09:19;;;;;;;10.90;8.50;;;15.50;99.90;;;;;;5008834;28;20303;-53
2021/09/14 04:11:49;;;;;;;13.60;9.53;;;15.50;99.90;;;;;;5003037;28;20326;-52
2021/09/14 04:14:15;;;;;;;11.27;9.23;;;15.50;99.90;;;;;;5005353;28;20297;-52
2021/09/14 04:16:42;;;;;;;14.47;9.57;;;15.50;99.90;;;;;;5001598;28;20221;-53
2021/09/14 04:19:09;;;;;;;12.60;9.10;;;15.50;99.90;;;;;;5006597;28;20242;-51
2021/09/14 04:21:36;;;;;;;14.20;9.47;;;15.50;99.90;;;;;;4992099;28;20269;-53
2021/09/14 04:24:03;;;;;;;13.60;10.03;;;15.50;99.90;;;;;;4995240;28;20385;-53
2021/09/14 04:26:30;;;;;;;13.00;8.93;;;15.50;99.90;;;;;;5006565;28;20241;-51
2021/09/14 04:28:56;;;;;;;15.23;9.23;;;15.50;99.90;;;;;;5003587;28;20889;-51
2021/09/14 04:31:23;;;;;;;9.90;8.83;;;15.50;99.90;;;;;;5006462;28;20302;-53
2021/09/14 04:33:50;;;;;;;13.83;9.87;;;15.50;99.90;;;;;;5006871;28;20232;-51
2021/09/14 04:36:17;;;;;;;14.90;9.80;;;15.50;99.90;;;;;;5003600;28;20250;-51
2021/09/14 04:38:43;;;;;;;12.93;9.13;;;15.50;99.90;;;;;;5007442;28;20315;-51
2021/09/14 04:41:10;;;;;;;14.03;9.47;;;15.40;99.90;;;;;;5007694;28;20300;-51
2021/09/14 04:43:37;;;;;;;12.03;9.70;;;15.40;99.90;;;;;;5007518;28;20221;-51
2021/09/14 04:46:04;;;;;;;12.33;9.23;;;15.40;99.90;;;;;;5008898;28;20199;-51
2021/09/14 04:48:31;;;;;;;13.97;9.37;;;15.40;99.90;;;;;;5011184;28;20239;-51
2021/09/14 04:50:58;;;;;;;13.53;9.50;;;15.40;99.90;;;;;;5002255;28;20587;-53
2021/09/14 04:53:25;;;;;;;11.80;9.03;;;15.30;99.90;;;;;;5003528;28;20363;-51
2021/09/14 04:55:51;;;;;;;12.97;10.23;;;15.20;99.90;;;;;;5009909;28;20231;-53
2021/09/14 04:58:18;;;;;;;14.23;10.03;;;15.30;99.90;;;;;;5011621;28;20321;-53
2021/09/14 05:00:45;;;;;;;14.07;10.07;;;15.30;99.90;;;;;;5010710;28;20273;-51
2021/09/14 05:03:12;;;;;;;14.73;9.70;;;15.30;99.90;;;;;;5007974;28;20625;-50
2021/09/14 05:05:39;;;;;;;13.73;9.70;;;15.30;99.90;;;;;;5001976;28;20206;-51
2021/09/14 05:08:06;;;;;;;13.30;10.10;;;15.20;99.90;;;;;;5007208;28;20236;-51
2021/09/14 05:10:32;;;;;;;14.97;10.03;;;15.30;99.90;;;;;;5005192;28;20301;-51
2021/09/14 05:13:04;;;;;;;14.50;10.23;;;15.20;99.90;;;;;;5009502;28;20279;-51
2021/09/14 05:15:31;;;;;;;13.27;10.07;;;15.20;99.90;;;;;;5005869;28;20714;-51
2021/09/14 05:17:58;;;;;;;11.37;9.93;;;15.10;99.90;;;;;;5010828;28;20245;-51
2021/09/14 05:20:25;;;;;;;12.23;9.80;;;15.20;99.90;;;;;;5009631;28;20304;-50
2021/09/14 05:23:00;;;;;;;13.27;9.40;;;15.20;99.90;;;;;;5007955;28;20297;-51
2021/09/14 05:25:27;;;;;;;14.70;10.77;;;15.20;99.90;;;;;;5000822;28;20230;-51
2021/09/14 05:27:54;;;;;;;15.67;10.87;;;15.20;99.90;;;;;;5008018;28;20563;-51
2021/09/14 05:30:20;;;;;;;13.07;9.93;;;15.10;99.90;;;;;;5005045;28;20235;-50
2021/09/14 05:32:47;;;;;;;15.50;11.23;;;15.20;99.90;;;;;;5009173;28;20725;-51
2021/09/14 05:35:14;;;;;;;16.13;11.40;;;15.20;99.90;;;;;;5000461;28;20310;-51
2021/09/14 05:37:41;;;;;;;14.27;10.30;;;15.10;99.90;;;;;;5001152;28;20202;-53
2021/09/14 05:40:09;;;;;;;13.47;10.70;;;15.10;99.90;;;;;;5005895;28;20264;-53
2021/09/14 05:42:35;;;;;;;14.50;10.07;;;15.10;99.90;;;;;;4999500;28;20289;-51
2021/09/14 05:45:02;;;;;;;16.20;10.80;;;15.10;99.90;;;;;;5007111;28;20679;-50
2021/09/14 05:47:29;;;;;;;15.33;10.30;;;15.10;99.90;;;;;;5008633;28;20226;-53
2021/09/14 05:49:58;;;;;;;15.87;11.70;;;15.10;99.90;;;;;;5000568;28;20603;-51
2021/09/14 05:52:25;;;;;;;15.57;10.73;;;15.10;99.90;;;;;;5000404;28;20283;-51
2021/09/14 05:54:52;;;;;;;16.43;11.40;;;15.10;99.90;;;;;;4992474;28;20296;-52
2021/09/14 05:57:19;;;;;;;15.60;10.30;;;15.20;99.90;;;;;;5005521;28;20348;-51
2021/09/14 05:59:45;;;;;;;17.73;10.80;;;15.30;99.90;;;;;;5000546;28;20289;-51
2021/09/14 06:02:12;;;;;;;14.47;10.57;;;15.20;99.90;;;;;;4988821;28;20244;-53
2021/09/14 06:04:39;;;;;;;17.20;11.33;;;15.20;99.90;;;;;;5004678;28;20669;-51
2021/09/14 06:07:06;;;;;;;17.47;11.73;;;15.10;99.90;;;;;;4999166;28;20333;-51
2021/09/14 06:09:32;;;;;;;15.33;11.93;;;15.10;99.90;;;;;;4999434;28;20520;-52
2021/09/14 06:11:59;;;;;;;15.00;11.30;;;15.10;99.90;;;;;;5007396;28;20413;-51
2021/09/14 06:14:26;;;;;;;17.77;10.83;;;15.10;99.90;;;;;;5007297;28;20717;-52
2021/09/14 06:16:53;;;;;;;15.23;11.40;;;15.20;99.90;;;;;;4998889;28;20812;-51
2021/09/14 06:19:21;;;;;;;15.10;11.17;;;15.10;99.90;;;;;;5006831;28;20680;-51
2021/09/14 06:21:48;;;;;;;15.73;11.60;;;15.20;99.90;;;;;;5009948;28;20297;-52
2021/09/14 06:24:14;;;;;;;19.20;12.27;;;15.20;99.90;;;;;;5001751;28;20214;-51
2021/09/14 06:26:41;;;;;;;16.97;10.87;;;15.20;99.90;;;;;;5009236;28;20199;-51
2021/09/14 06:29:08;;;;;;;16.03;11.43;;;15.30;99.90;;;;;;4999966;28;20231;-52
2021/09/14 06:31:35;;;;;;;17.13;11.83;;;15.30;99.90;;;;;;4993295;28;20241;-51
2021/09/14 06:34:02;;;;;;;15.73;12.10;;;15.30;99.90;;;;;;4998777;28;20203;-52
2021/09/14 06:36:28;;;;;;;19.03;11.50;;;15.40;99.90;;;;;;4997663;28;20277;-52
2021/09/14 06:38:55;;;;;;;14.57;11.60;;;15.30;99.90;;;;;;4998658;28;20249;-52
2021/09/14 06:41:22;;;;;;;16.33;12.13;;;15.40;99.90;;;;;;4991930;28;20229;-52
2021/09/14 06:43:49;;;;;;;17.10;11.30;;;15.30;99.90;;;;;;4995128;28;20233;-52
2021/09/14 06:46:16;;;;;;;13.67;10.83;;;15.40;99.90;;;;;;4993850;28;20297;-52
2021/09/14 06:48:42;;;;;;;14.87;10.83;;;15.40;99.90;;;;;;5002416;28;20652;-52
2021/09/14 06:51:09;;;;;;;17.30;12.50;;;15.50;99.90;;;;;;5000567;28;20298;-51
2021/09/14 06:53:36;;;;;;;17.30;12.07;;;15.60;99.90;;;;;;4996855;28;20245;-52
2021/09/14 06:56:03;;;;;;;16.67;11.93;;;15.60;99.90;;;;;;4991373;28;20619;-51
2021/09/14 06:58:30;;;;;;;15.37;12.40;;;15.70;99.90;;;;;;4991381;28;20366;-51
2021/09/14 07:00:57;;;;;;;16.40;13.23;;;15.70;99.90;;;;;;4994516;28;20659;-52
2021/09/14 07:03:24;;;;;;;19.03;12.43;;;15.60;99.90;;;;;;4997084;28;20203;-52
2021/09/14 07:05:51;;;;;;;15.57;12.23;;;15.60;99.90;;;;;;4996105;28;20243;-59
2021/09/14 07:08:18;;;;;;;17.43;12.83;;;15.80;99.90;;;;;;4991904;28;20234;-52
2021/09/14 07:10:44;;;;;;;15.30;12.33;;;15.90;99.90;;;;;;4993151;28;20749;-52
2021/09/14 07:13:11;;;;;;;15.10;12.13;;;16.10;99.90;;;;;;4995458;28;20293;-52
2021/09/14 07:15:38;;;;;;;16.23;12.73;;;16.00;99.90;;;;;;5000377;28;20472;-52
2021/09/14 07:18:05;;;;;;;18.83;13.13;;;16.10;99.90;;;;;;4993080;28;20378;-52
2021/09/14 07:20:32;;;;;;;15.73;12.20;;;16.10;99.90;;;;;;5000346;28;20682;-52
2021/09/14 07:22:59;;;;;;;17.83;12.93;;;16.10;99.90;;;;;;4993117;28;20377;-52
2021/09/14 07:25:26;;;;;;;16.40;12.60;;;16.10;99.90;;;;;;4987731;28;20286;-52
2021/09/14 07:27:53;;;;;;;22.10;13.63;;;16.10;99.90;;;;;;4989034;28;20332;-52
2021/09/14 07:30:20;;;;;;;17.03;13.30;;;16.30;99.90;;;;;;4994096;28;20319;-52
2021/09/14 07:32:53;;;;;;;17.37;12.87;;;16.20;99.90;;;;;;4992578;28;20313;-52
2021/09/14 07:35:21;;;;;;;18.03;12.87;;;16.30;99.90;;;;;;5005561;28;20231;-52
2021/09/14 07:37:49;;;;;;;16.70;13.27;;;16.40;99.90;;;;;;4992600;28;20299;-52
2021/09/14 07:40:16;;;;;;;19.67;12.97;;;16.50;99.90;;;;;;4995637;28;20733;-52
2021/09/14 07:42:43;;;;;;;19.57;13.73;;;16.50;99.90;;;;;;4997464;28;20663;-52
2021/09/14 07:45:10;;;;;;;15.67;12.87;;;16.70;99.90;;;;;;5010388;28;20306;-52
2021/09/14 07:47:37;;;;;;;15.83;12.93;;;16.90;99.90;;;;;;4999023;28;20672;-52
2021/09/14 07:50:04;;;;;;;18.27;13.10;;;17.00;99.90;;;;;;4994293;28;20290;-52
2021/09/14 07:52:31;;;;;;;16.63;13.53;;;17.20;99.90;;;;;;4997758;28;20709;-52
2021/09/14 07:54:58;;;;;;;18.83;14.20;;;17.20;99.90;;;;;;4991396;28;20215;-52
2021/09/14 07:57:25;;;;;;;18.87;13.17;;;17.30;1.00;;;;;;5001996;28;20644;-53
2021/09/14 07:59:52;;;;;;;21.23;13.10;;;17.50;1.00;;;;;;5001767;28;20215;-52
2021/09/14 08:02:18;;;;;;;19.03;13.53;;;17.70;1.00;;;;;;5000553;28;20298;-52
2021/09/14 08:04:45;;;;;;;15.47;12.83;;;17.60;1.00;;;;;;5003163;28;20320;-52
2021/09/14 08:07:12;;;;;;;16.53;12.70;;;17.80;1.00;;;;;;4997869;28;20208;-52
2021/09/14 08:09:39;;;;;;;17.40;13.57;;;17.90;1.00;;;;;;5001594;28;20298;-52
2021/09/14 08:12:06;;;;;;;16.23;12.90;;;18.00;1.00;;;;;;5007273;28;20228;-52
2021/09/14 08:14:33;;;;;;;16.97;13.47;;;18.10;1.00;;;;;;5000020;28;20286;-52
2021/09/14 08:17:01;;;;;;;18.90;13.80;;;18.30;1.00;;;;;;5005102;28;20236;-52
2021/09/14 08:19:27;;;;;;;17.70;13.33;;;18.50;1.00;;;;;;5004956;28;20231;-52
2021/09/14 08:21:54;;;;;;;18.57;14.77;;;18.60;1.00;;;;;;5007219;28;21194;-52
2021/09/14 08:24:22;;;;;;;15.80;14.10;;;18.70;1.00;;;;;;5003061;28;20222;-52
2021/09/14 08:26:48;;;;;;;16.50;13.40;;;18.90;99.90;;;;;;5007159;28;20201;-52
2021/09/14 08:29:15;;;;;;;17.40;13.80;;;18.90;1.00;;;;;;5000459;28;20343;-52
2021/09/14 08:31:42;;;;;;;17.90;14.03;;;18.90;1.00;;;;;;4994092;28;20458;-52
2021/09/14 08:34:09;;;;;;;15.80;14.10;;;18.90;18.70;;;;;;4997275;28;20302;-52
2021/09/14 08:36:36;;;;;;;20.13;14.33;;;18.90;99.90;;;;;;5005864;28;20249;-52
2021/09/14 08:39:04;;;;;;;21.20;14.27;;;18.90;1.00;;;;;;5003539;28;20241;-52
2021/09/14 08:41:31;;;;;;;17.67;14.10;;;18.90;1.00;;;;;;5008035;28;20252;-53
2021/09/14 08:43:59;;;;;;;16.03;13.83;;;19.10;1.00;;;;;;5001500;28;20225;-52
2021/09/14 08:46:26;;;;;;;19.33;13.60;;;19.20;1.00;;;;;;4998364;28;20236;-52
2021/09/14 08:48:53;;;;;;;19.20;14.10;;;19.00;1.00;;;;;;4993602;28;20623;-53
2021/09/14 08:51:20;;;;;;;15.57;13.30;;;19.10;1.00;;;;;;4996025;28;20206;-52
2021/09/14 08:53:47;;;;;;;17.70;14.70;;;19.20;1.00;;;;;;4997881;28;20232;-52
2021/09/14 08:56:14;;;;;;;16.43;13.17;;;19.10;59.50;;;;;;5020082;28;20698;-52
2021/09/14 08:58:41;;;;;;;17.13;13.67;;;19.10;1.00;;;;;;4997404;28;20616;-52
2021/09/14 09:01:13;;;;;;;18.00;13.90;;;19.40;1.00;;;;;;4996334;28;20314;-52
2021/09/14 09:03:40;;;;;;;16.30;13.77;;;19.50;1.00;;;;;;5005073;28;20205;-52
2021/09/14 09:06:07;;;;;;;15.83;12.93;;;19.70;99.90;;;;;;4993585;28;20615;-52
2021/09/14 09:08:34;;;;;;;15.43;13.17;;;19.80;90.10;;;;;;4993624;28;20614;-52
2021/09/14 09:11:08;;;;;;;18.17;12.77;;;20.30;1.00;;;;;;5000843;28;20368;-52
2021/09/14 09:13:44;;;;;;;14.67;13.13;;;20.30;1.00;;;;;;5002670;28;20231;-52
2021/09/14 09:16:22;;;;;;;14.17;12.63;;;20.30;1.00;;;;;;5003276;28;20304;-52
2021/09/14 09:18:54;;;;;;;15.03;12.20;;;20.50;1.00;;;;;;5005011;28;20246;-52
2021/09/14 09:21:34;;;;;;;13.50;12.07;;;20.50;1.00;;;;;;5000511;28;20569;-52
2021/09/14 09:24:05;;;;;;;13.70;12.30;;;20.40;99.90;;;;;;5000503;28;20211;-52
2021/09/14 09:26:37;;;;;;;17.13;12.67;;;20.20;1.00;;;;;;5008248;28;20271;-52
2021/09/14 09:29:06;;;;;;;14.57;12.20;;;20.30;99.90;;;;;;5018592;28;20305;-52
2021/09/14 09:31:34;;;;;;;13.57;12.10;;;20.50;1.00;;;;;;4997790;28;20319;-52
2021/09/14 09:34:02;;;;;;;15.77;11.30;;;20.80;99.90;;;;;;5002382;28;20297;-52
2021/09/14 09:36:31;;;;;;;15.00;12.40;;;21.10;1.00;;;;;;4997595;28;20280;-52
2021/09/14 09:39:02;;;;;;;16.20;12.80;;;20.80;1.00;;;;;;4997490;28;20626;-52
2021/09/14 09:41:33;;;;;;;13.70;11.80;;;21.00;1.00;;;;;;4998934;28;20319;-52
2021/09/14 09:44:19;;;;;;;12.60;11.23;;;20.80;1.00;;;;;;5000708;28;20289;-52
2021/09/14 09:46:54;;;;;;;15.00;11.70;;;20.80;99.90;;;;;;5004287;28;20227;-52
2021/09/14 09:49:22;;;;;;;15.20;12.00;;;20.70;99.90;;;;;;4997170;28;20232;-52
2021/09/14 09:51:51;;;;;;;18.27;12.93;;;20.70;99.90;;;;;;5005237;28;20359;-52
2021/09/14 09:54:18;;;;;;;17.03;12.10;;;20.70;1.00;;;;;;4997613;28;20302;-52
2021/09/14 09:56:48;;;;;;;15.77;13.23;;;20.80;1.00;;;;;;5002461;28;20229;-52
2021/09/14 09:59:15;;;;;;;20.80;14.03;;;20.70;99.90;;;;;;4998322;28;20309;-52
2021/09/14 10:01:57;;;;;;;15.33;12.30;;;20.70;1.00;;;;;;4999721;28;20217;-52
2021/09/14 10:04:27;;;;;;;15.53;12.43;;;20.80;1.00;;;;;;4998022;28;20193;-53
2021/09/14 10:06:56;;;;;;;17.70;13.37;;;21.00;1.00;;;;;;5000257;28;20240;-53
2021/09/14 10:09:32;;;;;;;17.17;12.50;;;21.00;99.90;;;;;;5003154;28;20314;-52
2021/09/14 10:11:59;;;;;;;14.33;12.83;;;21.00;1.00;;;;;;5004959;28;20336;-52
2021/09/14 10:14:26;;;;;;;13.60;12.20;;;21.00;1.00;;;;;;5001442;28;20202;-53
2021/09/14 10:17:04;;;;;;;15.53;12.60;;;21.10;1.00;;;;;;4996539;28;20224;-53
2021/09/14 10:19:31;;;;;;;15.63;12.47;;;21.10;1.00;;;;;;5006061;28;20286;-53
2021/09/14 10:22:08;;;;;;;16.33;12.83;;;21.00;1.00;;;;;;5000853;28;20285;-53
2021/09/14 10:24:52;;;;;;;19.37;13.23;;;21.10;1.00;;;;;;5004800;28;20213;-52
2021/09/14 10:27:19;;;;;;;15.43;12.43;;;21.20;1.00;;;;;;4996601;28;20300;-52
2021/09/14 10:29:57;;;;;;;13.40;11.30;;;21.20;99.90;;;;;;4991306;28;20295;-53
2021/09/14 10:32:24;;;;;;;14.03;12.27;;;21.50;1.00;;;;;;5003260;28;20256;-52
2021/09/14 10:34:55;;;;;;;14.17;11.07;;;21.50;1.00;;;;;;5002508;28;20364;-52
2021/09/14 10:37:30;;;;;;;14.90;11.10;;;21.60;99.90;;;;;;5000290;28;20221;-52
2021/09/14 10:40:14;;;;;;;16.17;12.03;;;21.90;99.90;;;;;;5002860;28;20232;-52
2021/09/14 10:42:45;;;;;;;13.80;10.83;;;21.90;1.00;;;;;;4997264;28;20229;-52
2021/09/14 10:45:17;;;;;;;12.83;10.27;;;22.00;99.90;;;;;;4998703;28;20220;-52
2021/09/14 10:47:46;;;;;;;12.47;10.60;;;21.90;99.90;;;;;;4999562;28;20223;-52
2021/09/14 10:50:25;;;;;;;12.30;10.73;;;22.00;1.00;;;;;;4990732;28;20229;-52
2021/09/14 10:52:58;;;;;;;13.17;11.27;;;22.00;99.90;;;;;;4999082;28;20617;-52
2021/09/14 10:55:24;;;;;;;14.30;10.07;;;22.10;99.90;;;;;;4990130;28;20292;-52
2021/09/14 10:58:00;;;;;;;12.93;10.83;;;22.10;1.00;;;;;;4996204;28;20230;-52
2021/09/14 11:00:31;;;;;;;14.50;10.93;;;22.20;99.90;;;;;;5000908;28;20588;-52
2021/09/14 11:02:59;;;;;;;13.77;10.43;;;22.20;99.90;;;;;;5000585;28;20194;-52
2021/09/14 11:05:27;;;;;;;14.13;10.77;;;22.30;99.90;;;;;;4993585;28;20208;-52
2021/09/14 11:08:05;;;;;;;14.03;10.10;;;22.40;1.00;;;;;;4998018;28;20340;-52
2021/09/14 11:10:39;;;;;;;11.47;10.27;;;22.70;99.90;;;;;;4988712;28;20652;-52
2021/09/14 11:13:07;;;;;;;13.43;9.63;;;22.70;99.90;;;;;;4993340;28;20279;-51
2021/09/14 11:15:34;;;;;;;9.77;8.73;;;22.70;61.70;;;;;;5009643;28;20331;-50
2021/09/14 11:18:01;;;;;;;11.07;9.90;;;22.80;1.00;;;;;;4993557;28;20208;-51
2021/09/14 11:20:31;;;;;;;14.53;10.97;;;22.70;1.00;;;;;;4994110;28;20828;-53
2021/09/14 11:22:59;;;;;;;12.00;10.07;;;22.70;1.00;;;;;;4989672;28;20349;-50
2021/09/14 11:25:29;;;;;;;10.10;8.70;;;22.80;52.80;;;;;;4993482;28;20252;-53
2021/09/14 11:28:03;;;;;;;13.37;10.10;;;23.00;99.90;;;;;;4991083;28;20215;-50
2021/09/14 11:30:32;;;;;;;13.97;10.13;;;23.00;1.00;;;;;;4997537;28;20818;-50
2021/09/14 11:32:59;;;;;;;13.17;10.70;;;23.10;1.00;;;;;;4995980;28;20761;-51
2021/09/14 11:35:34;;;;;;;12.80;10.10;;;23.00;1.00;;;;;;4999778;28;20215;-51
2021/09/14 11:38:07;;;;;;;11.23;9.57;;;23.10;1.00;;;;;;4996389;28;20478;-54
2021/09/14 11:40:49;;;;;;;11.40;10.20;;;23.10;99.90;;;;;;4998968;28;20226;-53
2021/09/14 11:43:20;;;;;;;11.37;9.83;;;23.10;99.90;;;;;;5000798;28;20289;-51
2021/09/14 11:45:47;;;;;;;10.80;8.60;;;23.10;99.90;;;;;;4999379;28;20229;-51
2021/09/14 11:48:22;;;;;;;9.07;8.07;;;23.20;1.00;;;;;;4991788;28;20296;-51
2021/09/14 11:51:05;;;;;;;11.63;8.57;;;23.30;99.90;;;;;;5002015;28;20805;-51
2021/09/14 11:53:32;;;;;;;9.90;8.10;;;23.20;1.00;;;;;;5004093;28;20248;-52
2021/09/14 11:56:00;;;;;;;12.43;8.60;;;23.20;1.00;;;;;;4996601;28;20288;-51
2021/09/14 11:58:32;;;;;;;13.23;8.83;;;23.20;1.00;;;;;;4996089;28;20300;-52
2021/09/14 12:01:06;;;;;;;12.30;9.17;;;23.10;1.00;;;;;;5002871;28;20204;-51
2021/09/14 12:03:38;;;;;;;13.00;9.70;;;23.10;1.00;;;;;;4997385;28;20861;-53
2021/09/14 12:06:09;;;;;;;10.30;9.20;;;23.00;1.00;;;;;;5006604;28;20299;-55
2021/09/14 12:08:40;;;;;;;12.40;9.73;;;23.00;1.00;;;;;;4999048;28;20236;-51
2021/09/14 12:11:08;;;;;;;11.97;9.77;;;23.00;1.00;;;;;;4998276;28;20532;-51
2021/09/14 12:13:43;;;;;;;9.50;8.50;;;23.10;1.00;;;;;;4998465;28;20297;-50
2021/09/14 12:16:17;;;;;;;12.03;9.03;;;23.00;1.00;;;;;;5001735;28;20814;-50
2021/09/14 12:18:44;;;;;;;10.53;9.47;;;22.90;1.00;;;;;;5000990;28;20301;-53
2021/09/14 12:21:12;;;;;;;10.63;9.43;;;22.90;1.00;;;;;;4994970;28;20278;-51
2021/09/14 12:23:39;;;;;;;12.10;8.57;;;22.90;1.00;;;;;;5001934;28;20200;-51
2021/09/14 12:26:19;;;;;;;10.80;8.77;;;23.00;99.90;;;;;;5005186;28;20357;-53
2021/09/14 12:28:47;;;;;;;11.10;9.17;;;22.90;53.20;;;;;;4997071;28;20930;-51
2021/09/14 12:31:15;;;;;;;16.20;8.20;;;23.00;99.90;;;;;;4995873;28;20352;-53
2021/09/14 12:33:43;;;;;;;8.77;7.80;;;22.90;99.90;;;;;;5014667;28;20592;-53
2021/09/14 12:36:10;;;;;;;11.40;8.90;;;22.90;99.90;;;;;;5000192;28;20258;-53
2021/09/14 12:38:37;;;;;;;10.97;8.53;;;22.90;1.00;;;;;;5003164;28;20248;-51
2021/09/14 12:41:05;;;;;;;9.43;7.50;;;22.90;1.00;;;;;;4998366;28;20307;-51
2021/09/14 12:43:32;;;;;;;9.10;8.20;;;22.90;1.00;;;;;;5008609;28;20238;-52
2021/09/14 12:45:59;;;;;;;9.37;7.87;;;22.90;1.00;;;;;;4997846;28;20228;-50
2021/09/14 12:48:26;;;;;;;9.80;8.20;;;22.90;1.00;;;;;;4999379;28;20252;-51
2021/09/14 12:50:54;;;;;;;8.67;7.20;;;22.90;1.00;;;;;;5002205;28;20236;-51
2021/09/14 12:53:20;;;;;;;8.33;7.03;;;22.90;1.00;;;;;;4999579;28;20255;-52
2021/09/14 12:55:48;;;;;;;8.23;7.00;;;23.00;72.40;;;;;;4999541;28;20376;-52
2021/09/14 12:58:35;;;;;;;10.33;7.53;;;23.00;99.90;;;;;;5003257;28;20213;-52
2021/09/14 13:01:03;;;;;;;8.50;7.60;;;23.00;43.60;;;;;;5003745;28;20310;-52
2021/09/14 13:03:30;;;;;;;9.83;8.03;;;23.00;28.20;;;;;;5004531;28;20730;-52
2021/09/14 13:05:57;;;;;;;10.27;6.87;;;23.10;99.90;;;;;;5000778;28;20207;-52
2021/09/14 13:08:24;;;;;;;9.30;8.33;;;23.10;99.90;;;;;;5002183;28;20228;-52
2021/09/14 13:10:54;;;;;;;12.13;7.70;;;23.00;1.00;;;;;;5000794;28;20684;-52
2021/09/14 13:16:13;;;;;;;9.93;8.33;;;23.10;1.00;;;;;;5000026;28;20760;-52
2021/09/14 13:18:41;;;;;;;8.10;7.27;;;23.10;1.00;;;;;;5000867;28;20713;-52
2021/09/14 13:21:10;;;;;;;10.93;8.27;;;23.10;92.90;;;;;;5000964;28;20300;-52
2021/09/14 13:23:38;;;;;;;8.80;7.23;;;23.20;99.90;;;;;;4997342;28;20206;-52
2021/09/14 13:26:05;;;;;;;8.17;7.17;;;23.20;99.90;;;;;;4998347;28;20230;-52
2021/09/14 13:28:33;;;;;;;8.90;7.40;;;23.30;1.00;;;;;;5000055;28;20237;-51
2021/09/14 13:31:00;;;;;;;9.40;6.73;;;23.30;1.00;;;;;;4999498;28;20217;-52
2021/09/14 13:33:27;;;;;;;7.90;7.10;;;23.30;99.90;;;;;;5003348;28;20252;-52
2021/09/14 13:35:55;;;;;;;10.07;7.53;;;23.20;99.90;;;;;;4999271;28;20670;-52
2021/09/14 13:38:22;;;;;;;7.50;6.60;;;23.20;99.90;;;;;;4996212;28;20272;-52
2021/09/14 13:40:52;;;;;;;9.43;7.40;;;23.10;99.90;;;;;;5000028;28;20255;-52
2021/09/14 13:43:34;;;;;;;9.17;8.00;;;23.10;99.90;;;;;;5002679;28;20240;-51